createdAt,value
2023-04-08T00:00:44.560Z,98298.06
2023-04-08T00:03:12.496Z,98296.00
2023-04-08T00:05:40.336Z,98299.19
2023-04-08T00:08:08.357Z,98305.56
2023-04-08T00:10:36.541Z,98303.34
2023-04-08T00:13:04.290Z,98298.88
2023-04-08T00:15:34.451Z,98305.91
2023-04-08T00:18:02.145Z,98298.38
2023-04-08T00:20:29.959Z,98306.22
2023-04-08T00:22:57.655Z,98301.44
2023-04-08T00:25:25.974Z,98305.25
2023-04-08T00:27:53.912Z,98306.56
2023-04-08T00:30:21.750Z,98302.06
2023-04-08T00:32:51.088Z,98302.22
2023-04-08T00:35:18.843Z,98298.72
2023-04-08T00:37:47.994Z,98307.50
2023-04-08T00:40:15.789Z,98299.50
2023-04-08T00:42:43.765Z,98304.94
2023-04-08T00:45:12.503Z,98307.66
2023-04-08T00:47:40.562Z,98298.38
2023-04-08T00:50:11.744Z,98306.38
2023-04-08T00:52:39.552Z,98305.75
2023-04-08T00:55:08.094Z,98306.88
2023-04-08T00:57:36.476Z,98306.56
2023-04-08T01:00:06.456Z,98312.78
2023-04-08T01:02:40.588Z,98316.94
2023-04-08T01:05:14.417Z,98312.63
2023-04-08T01:07:46.851Z,98314.09
2023-04-08T01:10:18.131Z,98311.19
2023-04-08T01:12:51.520Z,98313.75
2023-04-08T01:15:19.492Z,98317.72
2023-04-08T01:17:49.048Z,98330.19
2023-04-08T01:20:20.264Z,98331.16
2023-04-08T01:23:09.471Z,98317.72
2023-04-08T01:25:39.090Z,98324.44
2023-04-08T01:28:12.373Z,98325.38
2023-04-08T01:30:41.780Z,98323.16
2023-04-08T01:33:13.230Z,98328.44
2023-04-08T01:35:41.158Z,98329.53
2023-04-08T01:38:10.946Z,98323.97
2023-04-08T01:40:41.483Z,98327.31
2023-04-08T01:43:12.869Z,98320.63
2023-04-08T01:45:40.589Z,98328.28
2023-04-08T01:48:09.737Z,98326.69
2023-04-08T01:50:37.836Z,98317.72
2023-04-08T01:53:06.857Z,98322.06
2023-04-08T01:55:36.628Z,98319.66
2023-04-08T01:58:07.055Z,98306.56
2023-04-08T02:00:37.676Z,98317.44
2023-04-08T02:03:07.697Z,98314.88
2023-04-08T02:05:35.830Z,98316.13
2023-04-08T02:08:03.471Z,98325.88
2023-04-08T02:10:31.147Z,98323.16
2023-04-08T02:12:59.885Z,98323.66
2023-04-08T02:15:30.100Z,98325.88
2023-04-08T02:18:07.880Z,98323.44
2023-04-08T02:20:39.924Z,98324.56
2023-04-08T02:23:11.824Z,98331.59
2023-04-08T02:25:43.237Z,98328.56
2023-04-08T02:28:12.398Z,98326.47
2023-04-08T02:30:44.111Z,98325.34
2023-04-08T02:33:14.714Z,98330.78
2023-04-08T02:35:43.212Z,98326.63
2023-04-08T02:38:11.766Z,98329.84
2023-04-08T02:40:39.843Z,98329.84
2023-04-08T02:43:07.606Z,98329.50
2023-04-08T02:45:41.965Z,98340.97
2023-04-08T02:48:10.192Z,98336.34
2023-04-08T02:50:39.902Z,98340.47
2023-04-08T02:53:07.642Z,98334.56
2023-04-08T02:55:35.367Z,98340.00
2023-04-08T02:58:03.116Z,98342.06
2023-04-08T03:00:30.970Z,98341.28
2023-04-08T03:02:58.757Z,98341.59
2023-04-08T03:05:28.476Z,98348.59
2023-04-08T03:07:57.563Z,98346.69
2023-04-08T03:10:25.312Z,98339.19
2023-04-08T03:12:53.130Z,98346.06
2023-04-08T03:15:20.914Z,98344.47
2023-04-08T03:17:48.748Z,98351.31
2023-04-08T03:20:16.414Z,98347.13
2023-04-08T03:22:44.028Z,98353.50
2023-04-08T03:25:13.051Z,98350.63
2023-04-08T03:27:40.677Z,98354.91
2023-04-08T03:30:09.513Z,98354.28
2023-04-08T03:32:37.490Z,98358.09
2023-04-08T03:35:05.630Z,98357.75
2023-04-08T03:37:33.660Z,98357.13
2023-04-08T03:40:01.458Z,98359.84
2023-04-08T03:42:30.475Z,98358.84
2023-04-08T03:44:58.552Z,98356.41
2023-04-08T03:47:26.452Z,98357.38
2023-04-08T03:49:54.507Z,98360.22
2023-04-08T03:52:22.168Z,98357.81
2023-04-08T03:54:49.845Z,98354.44
2023-04-08T03:57:17.653Z,98352.50
2023-04-08T03:59:46.664Z,98359.03
2023-04-08T04:02:14.520Z,98363.94
2023-04-08T04:04:42.666Z,98367.63
2023-04-08T04:07:10.534Z,98363.94
2023-04-08T04:09:38.479Z,98364.44
2023-04-08T04:12:06.659Z,98369.34
2023-04-08T04:14:34.434Z,98362.00
2023-04-08T04:17:03.774Z,98361.22
2023-04-08T04:19:32.257Z,98357.91
2023-04-08T04:22:00.034Z,98366.97
2023-04-08T04:24:27.787Z,98376.56
2023-04-08T04:26:55.565Z,98370.84
2023-04-08T04:29:23.479Z,98370.34
2023-04-08T04:31:51.343Z,98376.09
2023-04-08T04:34:20.384Z,98378.69
2023-04-08T04:36:48.149Z,98384.22
2023-04-08T04:39:15.942Z,98389.34
2023-04-08T04:41:44.377Z,98388.53
2023-04-08T04:44:12.097Z,98389.53
2023-04-08T04:46:39.981Z,98389.53
2023-04-08T04:49:07.667Z,98392.72
2023-04-08T04:51:36.880Z,98393.34
2023-04-08T04:54:04.625Z,98388.53
2023-04-08T04:56:32.375Z,98394.63
2023-04-08T04:59:00.188Z,98395.31
2023-04-08T05:01:28.973Z,98402.94
2023-04-08T05:03:56.904Z,98395.31
2023-04-08T05:06:24.685Z,98400.75
2023-04-08T05:08:54.049Z,98404.75
2023-04-08T05:11:22.735Z,98401.72
2023-04-08T05:13:50.559Z,98409.72
2023-04-08T05:16:18.431Z,98415.75
2023-04-08T05:18:46.190Z,98406.78
2023-04-08T05:21:14.011Z,98408.13
2023-04-08T05:23:41.784Z,98414.97
2023-04-08T05:26:11.315Z,98424.38
2023-04-08T05:28:39.065Z,98422.66
2023-04-08T05:31:06.862Z,98425.50
2023-04-08T05:33:34.504Z,98424.56
2023-04-08T05:36:02.778Z,98425.75
2023-04-08T05:38:30.516Z,98428.56
2023-04-08T05:40:58.145Z,98433.50
2023-04-08T05:43:27.369Z,98438.06
2023-04-08T05:45:55.196Z,98437.25
2023-04-08T05:48:23.138Z,98433.50
2023-04-08T05:50:51.038Z,98439.72
2023-04-08T05:53:18.893Z,98445.31
2023-04-08T05:55:46.654Z,98438.69
2023-04-08T05:58:14.518Z,98443.59
2023-04-08T06:00:43.617Z,98444.72
2023-04-08T06:03:11.739Z,98445.03
2023-04-08T06:05:39.700Z,98452.72
2023-04-08T06:08:07.688Z,98454.94
2023-04-08T06:10:35.632Z,98455.31
2023-04-08T06:13:03.645Z,98464.94
2023-04-08T06:15:32.577Z,98455.06
2023-04-08T06:18:01.732Z,98452.84
2023-04-08T06:20:30.288Z,98461.72
2023-04-08T06:22:57.930Z,98457.53
2023-04-08T06:25:25.721Z,98455.06
2023-04-08T06:27:53.339Z,98459.50
2023-04-08T06:30:21.855Z,98456.53
2023-04-08T06:32:49.727Z,98469.41
2023-04-08T06:35:19.285Z,98463.81
2023-04-08T06:37:47.087Z,98472.41
2023-04-08T06:40:14.848Z,98473.16
2023-04-08T06:42:44.476Z,98475.50
2023-04-08T06:45:12.715Z,98482.41
2023-04-08T06:47:40.624Z,98485.09
2023-04-08T06:50:09.121Z,98490.22
2023-04-08T06:52:38.253Z,98486.59
2023-04-08T06:55:06.913Z,98485.81
2023-04-08T06:57:34.785Z,98484.75
2023-04-08T07:00:02.649Z,98483.50
2023-04-08T07:02:30.646Z,98487.56
2023-04-08T07:04:58.450Z,98489.78
2023-04-08T07:07:26.246Z,98500.00
2023-04-08T07:09:55.387Z,98500.81
2023-04-08T07:12:23.135Z,98509.44
2023-04-08T07:14:50.933Z,98511.16
2023-04-08T07:17:18.570Z,98511.09
2023-04-08T07:19:47.130Z,98507.78
2023-04-08T07:22:14.799Z,98505.41
2023-04-08T07:24:43.373Z,98515.47
2023-04-08T07:27:12.388Z,98520.94
2023-04-08T07:29:40.011Z,98524.53
2023-04-08T07:32:08.216Z,98528.19
2023-04-08T07:34:36.021Z,98527.56
2023-04-08T07:37:03.885Z,98530.34
2023-04-08T07:39:31.575Z,98536.81
2023-04-08T07:41:59.249Z,98534.81
2023-04-08T07:44:28.277Z,98540.19
2023-04-08T07:46:55.901Z,98542.50
2023-04-08T07:49:23.693Z,98537.94
2023-04-08T07:51:51.547Z,98544.34
2023-04-08T07:54:19.145Z,98539.19
2023-04-08T07:56:46.819Z,98549.41
2023-04-08T07:59:14.639Z,98550.81
2023-04-08T08:01:43.738Z,98546.72
2023-04-08T08:04:11.773Z,98542.22
2023-04-08T08:06:39.593Z,98550.00
2023-04-08T08:09:07.248Z,98549.81
2023-04-08T08:11:34.921Z,98553.94
2023-04-08T08:14:04.553Z,98560.84
2023-04-08T08:16:33.692Z,98559.00
2023-04-08T08:19:04.449Z,98566.63
2023-04-08T08:21:32.063Z,98560.94
2023-04-08T08:24:00.666Z,98555.78
2023-04-08T08:26:28.621Z,98560.00
2023-04-08T08:28:56.329Z,98569.84
2023-04-08T08:31:24.001Z,98567.81
2023-04-08T08:33:51.940Z,98568.38
2023-04-08T08:36:21.201Z,98569.00
2023-04-08T08:38:49.065Z,98572.81
2023-04-08T08:41:16.713Z,98578.22
2023-04-08T08:43:45.179Z,98576.00
2023-04-08T08:46:13.017Z,98574.72
2023-04-08T08:48:40.818Z,98580.94
2023-04-08T08:51:10.421Z,98576.00
2023-04-08T08:53:45.198Z,98580.22
2023-04-08T08:56:18.449Z,98581.22
2023-04-08T08:58:47.748Z,98590.84
2023-04-08T09:01:35.676Z,98592.56
2023-04-08T09:04:15.829Z,98592.34
2023-04-08T09:06:44.075Z,98592.16
2023-04-08T09:09:13.265Z,98590.66
2023-04-08T09:11:42.563Z,98596.53
2023-04-08T09:14:23.430Z,98598.00
2023-04-08T09:16:51.959Z,98601.59
2023-04-08T09:19:20.440Z,98592.19
2023-04-08T09:22:05.884Z,98595.78
2023-04-08T09:24:35.737Z,98600.31
2023-04-08T09:27:03.726Z,98602.44
2023-04-08T09:29:34.300Z,98596.28
2023-04-08T09:32:03.639Z,98610.56
2023-04-08T09:34:34.371Z,98607.88
2023-04-08T09:37:02.405Z,98623.28
2023-04-08T09:39:30.694Z,98613.84
2023-04-08T09:42:01.204Z,98614.41
2023-04-08T09:44:30.410Z,98611.19
2023-04-08T09:47:09.485Z,98608.59
2023-04-08T09:49:43.313Z,98614.47
2023-04-08T09:52:12.974Z,98612.78
2023-04-08T09:54:49.163Z,98610.84
2023-04-08T09:57:26.680Z,98619.22
2023-04-08T10:00:09.884Z,98612.94
2023-04-08T10:02:47.153Z,98613.09
2023-04-08T10:05:16.963Z,98617.19
2023-04-08T10:07:45.098Z,98622.41
2023-04-08T10:10:13.240Z,98617.00
2023-04-08T10:12:43.076Z,98612.56
2023-04-08T10:15:25.132Z,98616.72
2023-04-08T10:17:54.291Z,98614.00
2023-04-08T10:20:45.207Z,98617.47
2023-04-08T10:23:14.484Z,98619.41
2023-04-08T10:25:43.433Z,98616.53
2023-04-08T10:28:36.725Z,98615.03
2023-04-08T10:31:04.670Z,98618.41
2023-04-08T10:33:34.630Z,98617.66
2023-04-08T10:36:11.323Z,98611.44
2023-04-08T10:38:39.639Z,98610.41
2023-04-08T10:41:07.377Z,98606.72
2023-04-08T10:43:37.593Z,98608.78
2023-04-08T10:46:06.477Z,98611.66
2023-04-08T10:48:34.246Z,98608.69
2023-04-08T10:51:03.723Z,98614.91
2023-04-08T10:53:33.657Z,98609.66
2023-04-08T10:56:08.581Z,98615.25
2023-04-08T10:58:37.790Z,98610.13
2023-04-08T11:01:07.765Z,98612.41
2023-04-08T11:03:37.275Z,98609.69
2023-04-08T11:06:06.122Z,98607.28
2023-04-08T11:08:34.745Z,98610.53
2023-04-08T11:11:02.686Z,98607.97
2023-04-08T11:13:30.790Z,98606.84
2023-04-08T11:16:00.960Z,98609.91
2023-04-08T11:18:28.899Z,98612.59
2023-04-08T11:20:58.356Z,98614.03
2023-04-08T11:23:27.967Z,98606.00
2023-04-08T11:25:56.687Z,98606.25
2023-04-08T11:28:24.702Z,98598.41
2023-04-08T11:30:53.402Z,98605.88
2023-04-08T11:33:26.304Z,98611.72
2023-04-08T11:35:54.275Z,98612.75
2023-04-08T11:38:24.545Z,98608.81
2023-04-08T11:40:55.522Z,98614.59
2023-04-08T11:43:23.913Z,98611.59
2023-04-08T11:45:51.938Z,98603.50
2023-04-08T11:48:19.924Z,98609.59
2023-04-08T11:50:50.710Z,98611.50
2023-04-08T11:53:19.708Z,98607.19
2023-04-08T11:55:48.473Z,98611.03
2023-04-08T11:58:16.430Z,98604.94
2023-04-08T12:00:45.559Z,98611.00
2023-04-08T12:03:14.337Z,98610.53
2023-04-08T12:05:42.518Z,98599.69
2023-04-08T12:08:11.668Z,98606.16
2023-04-08T12:10:39.391Z,98600.97
2023-04-08T12:13:07.063Z,98602.50
2023-04-08T12:15:34.781Z,98593.06
2023-04-08T12:18:02.544Z,98601.72
2023-04-08T12:20:45.680Z,98597.69
2023-04-08T12:23:14.675Z,98604.56
2023-04-08T12:25:42.357Z,98603.84
2023-04-08T12:28:11.578Z,98606.22
2023-04-08T12:30:39.216Z,98610.16
2023-04-08T12:33:07.186Z,98606.09
2023-04-08T12:35:34.846Z,98601.78
2023-04-08T12:38:02.528Z,98604.22
2023-04-08T12:40:31.491Z,98604.38
2023-04-08T12:42:59.136Z,98611.97
2023-04-08T12:45:26.765Z,98610.31
2023-04-08T12:47:54.542Z,98607.59
2023-04-08T12:50:23.540Z,98613.84
2023-04-08T12:52:51.523Z,98617.16
2023-04-08T12:55:19.248Z,98611.72
2023-04-08T12:57:48.392Z,98604.69
2023-04-08T13:00:16.614Z,98607.22
2023-04-08T13:02:44.784Z,98610.56
2023-04-08T13:05:12.561Z,98606.91
2023-04-08T13:07:40.505Z,98610.47
2023-04-08T13:10:09.616Z,98615.28
2023-04-08T13:12:40.132Z,98612.56
2023-04-08T13:15:10.922Z,98610.19
2023-04-08T13:17:38.623Z,98618.00
2023-04-08T13:20:09.610Z,98611.13
2023-04-08T13:22:37.425Z,98615.28
2023-04-08T13:25:06.576Z,98622.84
2023-04-08T13:27:34.413Z,98619.34
2023-04-08T13:30:02.096Z,98620.44
2023-04-08T13:32:31.200Z,98616.63
2023-04-08T13:34:58.832Z,98620.13
2023-04-08T13:37:27.314Z,98623.50
2023-04-08T13:39:55.170Z,98616.56
2023-04-08T13:42:22.889Z,98617.41
2023-04-08T13:44:50.685Z,98616.91
2023-04-08T13:47:18.411Z,98624.59
2023-04-08T13:49:47.498Z,98611.28
2023-04-08T13:52:15.638Z,98611.91
2023-04-08T13:54:43.353Z,98617.00
2023-04-08T13:57:11.024Z,98612.06
2023-04-08T13:59:38.723Z,98613.63
2023-04-08T14:02:06.661Z,98613.13
2023-04-08T14:04:34.613Z,98603.31
2023-04-08T14:07:03.855Z,98609.06
2023-04-08T14:09:31.629Z,98606.44
2023-04-08T14:11:59.477Z,98602.25
2023-04-08T14:14:27.085Z,98607.06
2023-04-08T14:16:54.916Z,98607.13
2023-04-08T14:19:22.582Z,98604.38
2023-04-08T14:21:50.554Z,98615.38
2023-04-08T14:24:19.907Z,98609.06
2023-04-08T14:26:47.826Z,98608.78
2023-04-08T14:29:15.535Z,98604.69
2023-04-08T14:31:43.232Z,98608.81
2023-04-08T14:34:10.928Z,98607.72
2023-04-08T14:36:38.639Z,98609.81
2023-04-08T14:39:06.356Z,98595.59
2023-04-08T14:41:35.576Z,98610.13
2023-04-08T14:44:04.338Z,98599.59
2023-04-08T14:46:32.601Z,98595.09
2023-04-08T14:49:01.038Z,98594.16
2023-04-08T14:51:28.748Z,98599.59
2023-04-08T14:53:56.409Z,98592.16
2023-04-08T14:56:24.053Z,98598.94
2023-04-08T14:58:53.226Z,98602.94
2023-04-08T15:01:21.192Z,98598.59
2023-04-08T15:03:49.013Z,98609.59
2023-04-08T15:06:17.762Z,98611.22
2023-04-08T15:08:45.895Z,98610.47
2023-04-08T15:11:13.758Z,98614.69
2023-04-08T15:13:41.618Z,98617.09
2023-04-08T15:16:10.743Z,98620.28
2023-04-08T15:18:38.474Z,98619.69
2023-04-08T15:21:06.370Z,98619.13
2023-04-08T15:23:34.087Z,98619.25
2023-04-08T15:26:03.477Z,98627.50
2023-04-08T15:28:31.281Z,98625.78
2023-04-08T15:30:59.070Z,98629.50
2023-04-08T15:33:28.166Z,98628.06
2023-04-08T15:35:57.496Z,98633.91
2023-04-08T15:38:26.639Z,98629.75
2023-04-08T15:40:54.570Z,98630.13
2023-04-08T15:43:22.247Z,98630.78
2023-04-08T15:45:49.967Z,98645.75
2023-04-08T15:48:18.812Z,98634.72
2023-04-08T15:50:47.901Z,98633.97
2023-04-08T15:53:15.604Z,98645.13
2023-04-08T15:55:43.257Z,98642.44
2023-04-08T15:58:11.037Z,98649.00
2023-04-08T16:00:38.754Z,98645.69
2023-04-08T16:03:08.696Z,98652.94
2023-04-08T16:05:39.136Z,98656.66
2023-04-08T16:08:08.567Z,98665.91
2023-04-08T16:10:36.500Z,98662.06
2023-04-08T16:13:04.278Z,98660.19
2023-04-08T16:15:31.936Z,98659.97
2023-04-08T16:17:59.609Z,98662.22
2023-04-08T16:20:28.694Z,98669.75
2023-04-08T16:22:56.470Z,98670.53
2023-04-08T16:25:27.168Z,98673.28
2023-04-08T16:27:55.913Z,98670.06
2023-04-08T16:30:23.628Z,98666.44
2023-04-08T16:32:51.303Z,98680.97
2023-04-08T16:35:20.482Z,98679.53
2023-04-08T16:37:48.139Z,98680.38
2023-04-08T16:40:15.931Z,98680.97
2023-04-08T16:42:45.067Z,98677.28
2023-04-08T16:45:12.991Z,98684.34
2023-04-08T16:47:41.731Z,98691.69
2023-04-08T16:50:10.113Z,98691.00
2023-04-08T16:52:37.744Z,98695.34
2023-04-08T16:55:05.892Z,98695.53
2023-04-08T16:57:33.613Z,98696.84
2023-04-08T17:00:02.712Z,98701.16
2023-04-08T17:02:31.297Z,98707.31
2023-04-08T17:04:58.970Z,98703.34
2023-04-08T17:07:28.113Z,98701.75
2023-04-08T17:09:56.168Z,98711.03
2023-04-08T17:12:23.917Z,98714.88
2023-04-08T17:14:51.674Z,98721.28
2023-04-08T17:17:20.711Z,98719.69
2023-04-08T17:19:48.512Z,98728.34
2023-04-08T17:22:16.471Z,98718.28
2023-04-08T17:24:47.811Z,98724.81
2023-04-08T17:27:15.841Z,98729.47
2023-04-08T17:29:43.609Z,98731.22
2023-04-08T17:32:12.469Z,98731.88
2023-04-08T17:34:41.856Z,98729.28
2023-04-08T17:37:10.348Z,98743.22
2023-04-08T17:39:40.843Z,98734.75
2023-04-08T17:42:08.811Z,98739.56
2023-04-08T17:44:36.600Z,98735.56
2023-04-08T17:47:04.410Z,98739.38
2023-04-08T17:49:32.070Z,98739.91
2023-04-08T17:52:01.055Z,98740.88
2023-04-08T17:54:28.774Z,98735.41
2023-04-08T17:56:56.415Z,98747.88
2023-04-08T17:59:24.134Z,98752.06
2023-04-08T18:01:52.009Z,98752.06
2023-04-08T18:04:21.004Z,98756.22
2023-04-08T18:06:48.741Z,98758.00
2023-04-08T18:09:17.822Z,98755.28
2023-04-08T18:11:45.530Z,98763.47
2023-04-08T18:14:13.509Z,98769.03
2023-04-08T18:16:41.379Z,98767.78
2023-04-08T18:19:09.048Z,98777.19
2023-04-08T18:21:36.687Z,98778.97
2023-04-08T18:24:04.448Z,98768.72
2023-04-08T18:26:33.462Z,98789.38
2023-04-08T18:29:01.173Z,98785.84
2023-04-08T18:31:28.836Z,98799.81
2023-04-08T18:33:56.800Z,98795.63
2023-04-08T18:36:24.436Z,98804.59
2023-04-08T18:38:52.221Z,98806.84
2023-04-08T18:41:20.985Z,98801.88
2023-04-08T18:43:50.302Z,98814.78
2023-04-08T18:46:18.632Z,98812.69
2023-04-08T18:48:46.432Z,98813.28
2023-04-08T18:51:14.204Z,98815.69
2023-04-08T18:53:41.893Z,98816.13
2023-04-08T18:56:15.403Z,98823.69
2023-04-08T18:58:43.273Z,98824.78
2023-04-08T19:01:12.524Z,98827.81
2023-04-08T19:03:40.491Z,98830.53
2023-04-08T19:06:08.855Z,98824.59
2023-04-08T19:08:36.716Z,98832.16
2023-04-08T19:11:04.767Z,98831.16
2023-04-08T19:13:32.585Z,98835.81
2023-04-08T19:16:00.504Z,98836.78
2023-04-08T19:18:29.571Z,98835.53
2023-04-08T19:20:57.278Z,98834.88
2023-04-08T19:23:24.920Z,98841.59
2023-04-08T19:25:52.717Z,98839.50
2023-04-08T19:28:20.633Z,98842.72
2023-04-08T19:30:50.881Z,98840.47
2023-04-08T19:33:18.725Z,98843.22
2023-04-08T19:35:49.270Z,98848.47
2023-04-08T19:38:16.959Z,98849.63
2023-04-08T19:40:44.602Z,98850.25
2023-04-08T19:43:12.261Z,98854.72
2023-04-08T19:45:39.957Z,98853.72
2023-04-08T19:48:07.726Z,98857.38
2023-04-08T19:50:38.347Z,98863.28
2023-04-08T19:53:07.514Z,98863.91
2023-04-08T19:55:37.341Z,98861.38
2023-04-08T19:58:05.314Z,98859.72
2023-04-08T20:00:33.280Z,98864.53
2023-04-08T20:03:01.311Z,98861.59
2023-04-08T20:05:29.193Z,98867.84
2023-04-08T20:07:56.967Z,98862.59
2023-04-08T20:10:28.502Z,98863.53
2023-04-08T20:12:56.280Z,98863.28
2023-04-08T20:15:25.446Z,98864.53
2023-04-08T20:17:54.010Z,98860.06
2023-04-08T20:20:22.829Z,98860.69
2023-04-08T20:22:50.791Z,98866.41
2023-04-08T20:25:18.727Z,98865.31
2023-04-08T20:27:47.856Z,98871.84
2023-04-08T20:30:15.795Z,98866.41
2023-04-08T20:32:43.594Z,98871.56
2023-04-08T20:35:11.854Z,98870.59
2023-04-08T20:37:39.719Z,98871.84
2023-04-08T20:40:08.999Z,98870.88
2023-04-08T20:42:38.528Z,98870.88
2023-04-08T20:45:09.445Z,98874.69
2023-04-08T20:47:37.174Z,98871.91
2023-04-08T20:50:05.322Z,98873.09
2023-04-08T20:52:34.254Z,98875.50
2023-04-08T20:55:02.043Z,98876.81
2023-04-08T20:57:29.931Z,98879.16
2023-04-08T20:59:57.689Z,98870.50
2023-04-08T21:02:26.989Z,98875.59
2023-04-08T21:04:55.053Z,98882.75
2023-04-08T21:07:25.302Z,98884.84
2023-04-08T21:09:53.285Z,98890.63
2023-04-08T21:12:20.978Z,98883.97
2023-04-08T21:14:50.855Z,98884.97
2023-04-08T21:17:19.555Z,98882.97
2023-04-08T21:19:48.601Z,98875.94
2023-04-08T21:22:17.627Z,98882.63
2023-04-08T21:24:45.333Z,98884.63
2023-04-08T21:27:13.013Z,98887.34
2023-04-08T21:29:40.757Z,98882.03
2023-04-08T21:32:08.595Z,98889.78
2023-04-08T21:34:36.268Z,98888.06
2023-04-08T21:37:06.126Z,98884.13
2023-04-08T21:39:33.787Z,98884.28
2023-04-08T21:42:02.163Z,98885.25
2023-04-08T21:44:29.830Z,98889.28
2023-04-08T21:46:58.656Z,98891.53
2023-04-08T21:49:29.684Z,98883.25
2023-04-08T21:51:57.486Z,98888.13
2023-04-08T21:54:26.598Z,98881.25
2023-04-08T21:56:54.326Z,98883.13
2023-04-08T21:59:22.213Z,98877.44
2023-04-08T22:01:49.944Z,98889.09
2023-04-08T22:04:19.595Z,98894.00
2023-04-08T22:06:49.244Z,98894.00
2023-04-08T22:09:17.399Z,98895.63
2023-04-08T22:11:46.717Z,98889.44
2023-04-08T22:14:15.411Z,98897.34
2023-04-08T22:16:43.175Z,98890.06
2023-04-08T22:19:10.957Z,98889.56
2023-04-08T22:21:38.758Z,98894.09
2023-04-08T22:24:06.681Z,98894.44
2023-04-08T22:26:34.318Z,98898.41
2023-04-08T22:29:03.473Z,98897.31
2023-04-08T22:31:31.239Z,98896.47
2023-04-08T22:33:58.934Z,98888.44
2023-04-08T22:36:27.152Z,98891.91
2023-04-08T22:38:54.793Z,98888.06
2023-04-08T22:41:23.991Z,98889.59
2023-04-08T22:43:51.870Z,98886.84
2023-04-08T22:46:20.970Z,98895.47
2023-04-08T22:48:49.464Z,98889.59
2023-04-08T22:51:18.477Z,98886.84
2023-04-08T22:53:46.181Z,98890.16
2023-04-08T22:56:13.900Z,98886.44
2023-04-08T22:58:41.598Z,98888.78
2023-04-08T23:01:13.607Z,98900.53
2023-04-08T23:03:42.747Z,98887.44
2023-04-08T23:06:10.814Z,98890.41
2023-04-08T23:08:39.025Z,98884.63
2023-04-08T23:11:06.857Z,98886.78
2023-04-08T23:13:35.258Z,98887.56
2023-04-08T23:16:03.082Z,98890.97
2023-04-08T23:18:30.857Z,98883.75
2023-04-08T23:20:59.900Z,98880.53
2023-04-08T23:23:27.625Z,98882.03
2023-04-08T23:25:56.738Z,98892.81
2023-04-08T23:28:24.605Z,98897.84
2023-04-08T23:30:52.318Z,98892.28
2023-04-08T23:33:20.027Z,98886.63
2023-04-08T23:35:47.738Z,98888.78
2023-04-08T23:38:16.780Z,98889.94
2023-04-08T23:40:44.440Z,98891.66
2023-04-08T23:43:12.100Z,98885.84
2023-04-08T23:45:39.835Z,98886.44
2023-04-08T23:48:10.070Z,98885.84
2023-04-08T23:50:38.046Z,98884.63
2023-04-08T23:53:05.754Z,98884.00
2023-04-08T23:55:34.816Z,98893.81
2023-04-08T23:58:02.475Z,98883.75
